Airfield :
LOGIN :

Register | Disclaimer

   EN    FR    IT 

 










Legend :    VFR   Marginal VFR   IFR   Intensive IFR   Very Intensive IFR
Visi :
Ceiling :
>= 8 km
>= 3000ft
5 to 8 km
1000 to 3000 ft
1500m to 5 km
500 to 1000 ft
800 to 1500m
200 to 500 ft
< 800m
< 200 ft
Symbols :   Thunderstorms  Fog  Heavy snow  Heavy precipitations  Wind > 20 kt
SIGMETs :     Misc.  Thunderstorms  Icing  Turbulence  Mountain Waves  Volcanic Ashes






- Airport Elevation : 791 ft
- IATA code : KRK


EPKK - Krakow-Balice

CURRENT METAR :
  • 230130Z 25007KT 9999 FEW017 M00/M01 Q1032

EXPIRED METARs :
  • 230100Z 23004KT 190V270 8000 BKN014 00/M01 Q1032
  • 230030Z 22005KT 8000 SCT017 00/M01 Q1031
  • 230000Z 26007KT 9999 FEW016 SCT044 01/M00 Q1031
  • 222330Z 26008KT 7000 FEW015 SCT040 00/M01 Q1031
  • 222300Z 25007KT 6000 FEW013 SCT040 01/M00 Q1031

TAF TAF EPKK
Valid from the 23 at 00:00 until the 24 at 00:00 UTC


222330Z 2300/2324 25010KT 6000 SCT020
TEMPO 2300/2308 4000 BR BKN008
BECMG 2316/2319 VRB02KT 2000 BR
BECMG 2320/2323 1200 BR



MET'MAP, your aeronautical weather chart ! - Copyright ORBIFLY December 2007 - Disclaimer

ORBIFLY MET'MAP TEAM :

Programming & Development : Alexandra Zaïnal
Concept & original design : Baudouin d'Aumeries
Assistance for programming : Marc-Olivier Méhu
Technical & hardware support : Manuel Goepfert

Contact : metmap@orbifly.com




SOURCES & CREDITS :

   NOAA